Time;durP1;ratioP1;P1;durP2;ratioP2;P2;SDS_P1;SDS_P2;PMS_P1;PMS_P2;Temp;Humidity;BMP_temperature;BMP_pressure;BME280_temperature;BME280_humidity;BME280_pressure;Samples;Min_cycle;Max_cycle;Signal;HPM_P1;HPM_P2
2021/01/24 00:00:31;;;;;;;4.28;3.95;;;;;;;;;;5090206;28;20446;-50
2021/01/24 00:02:57;;;;;;;4.70;4.30;;;;;;;;;;5090541;28;20157;-50
2021/01/24 00:05:23;;;;;;;4.83;4.33;;;;;;;;;;5088269;28;20683;-51
2021/01/24 00:07:49;;;;;;;5.45;4.95;;;;;;;;;;5090360;28;20399;-49
2021/01/24 00:10:17;;;;;;;4.55;4.13;;;;;;;;;;5090339;28;20218;-50
2021/01/24 00:12:43;;;;;;;8.20;5.38;;;;;;;;;;5090413;28;20195;-54
2021/01/24 00:15:09;;;;;;;4.70;4.30;;;;;;;;;;5088530;28;20186;-51
2021/01/24 00:17:35;;;;;;;5.65;4.95;;;;;;;;;;5090045;28;20167;-51
2021/01/24 00:20:01;;;;;;;6.33;5.50;;;;;;;;;;5090301;28;20696;-53
2021/01/24 00:22:28;;;;;;;6.18;5.50;;;;;;;;;;5089526;28;20432;-50
2021/01/24 00:24:54;;;;;;;5.93;5.40;;;;;;;;;;5090329;28;20168;-49
2021/01/24 00:27:20;;;;;;;6.57;5.75;;;;;;;;;;5089901;28;20172;-49
2021/01/24 00:29:46;;;;;;;6.80;6.10;;;;;;;;;;5090207;28;20184;-50
2021/01/24 00:32:12;;;;;;;6.20;5.60;;;;;;;;;;5090259;28;20437;-49
2021/01/24 00:34:39;;;;;;;7.15;5.75;;;;;;;;;;5090127;28;20251;-50
2021/01/24 00:37:05;;;;;;;7.65;5.03;;;;;;;;;;5088091;28;20632;-49
2021/01/24 00:39:31;;;;;;;6.40;5.80;;;;;;;;;;5089963;28;20199;-51
2021/01/24 00:41:58;;;;;;;7.00;5.45;;;;;;;;;;5091451;28;20268;-53
2021/01/24 00:44:24;;;;;;;7.03;6.32;;;;;;;;;;5093725;28;20173;-51
2021/01/24 00:46:50;;;;;;;6.47;5.68;;;;;;;;;;5093738;28;20273;-51
2021/01/24 00:49:16;;;;;;;9.63;6.33;;;;;;;;;;5093708;28;20203;-52
2021/01/24 00:51:42;;;;;;;6.20;5.17;;;;;;;;;;5093907;28;20891;-54
2021/01/24 00:54:08;;;;;;;10.20;7.10;;;;;;;;;;5093827;28;20432;-54
2021/01/24 00:56:34;;;;;;;9.75;7.35;;;;;;;;;;5093374;28;20398;-50
2021/01/24 00:59:00;;;;;;;9.10;6.43;;;;;;;;;;5093570;28;20441;-49
2021/01/24 01:01:25;;;;;;;6.27;5.70;;;;;;;;;;5093364;28;20516;-49
2021/01/24 01:03:51;;;;;;;11.80;7.07;;;;;;;;;;5093495;28;20394;-49
2021/01/24 01:06:17;;;;;;;7.47;6.67;;;;;;;;;;5091831;28;20468;-50
2021/01/24 01:08:43;;;;;;;6.80;6.10;;;;;;;;;;5093348;28;20964;-49
2021/01/24 01:11:09;;;;;;;7.80;6.60;;;;;;;;;;5093155;28;20434;-49
2021/01/24 01:13:35;;;;;;;8.50;7.37;;;;;;;;;;5093194;28;20399;-50
2021/01/24 01:16:01;;;;;;;10.20;7.15;;;;;;;;;;5092900;28;20894;-50
2021/01/24 01:18:31;;;;;;;8.93;6.65;;;;;;;;;;5093526;28;20596;-50
2021/01/24 01:20:57;;;;;;;10.40;6.57;;;;;;;;;;5092985;28;20687;-52
2021/01/24 01:23:23;;;;;;;9.30;7.30;;;;;;;;;;5092897;28;20170;-51
2021/01/24 01:25:53;;;;;;;9.02;6.75;;;;;;;;;;5092807;28;20627;-53
2021/01/24 01:28:19;;;;;;;8.18;6.75;;;;;;;;;;5092727;28;20192;-50
2021/01/24 01:30:45;;;;;;;9.03;7.40;;;;;;;;;;5092914;28;20167;-49
2021/01/24 01:33:11;;;;;;;7.50;6.07;;;;;;;;;;5092679;28;20977;-50
2021/01/24 01:35:37;;;;;;;7.23;6.07;;;;;;;;;;5092426;28;20169;-51
2021/01/24 01:38:03;;;;;;;9.90;7.00;;;;;;;;;;5091621;28;20428;-51
2021/01/24 01:40:29;;;;;;;8.88;7.20;;;;;;;;;;5092434;28;20448;-51
2021/01/24 01:42:58;;;;;;;9.50;6.57;;;;;;;;;;5092717;28;20178;-51
2021/01/24 01:45:24;;;;;;;7.05;6.32;;;;;;;;;;5092115;28;20950;-50
2021/01/24 01:47:50;;;;;;;8.63;6.73;;;;;;;;;;5092337;28;20188;-50
2021/01/24 01:50:17;;;;;;;10.10;7.22;;;;;;;;;;5092340;28;21173;-49
2021/01/24 01:52:43;;;;;;;6.78;6.18;;;;;;;;;;5092526;28;20249;-51
2021/01/24 01:55:10;;;;;;;10.13;7.20;;;;;;;;;;5073719;28;20219;-52
2021/01/24 01:57:36;;;;;;;8.60;7.75;;;;;;;;;;5092049;28;20162;-51
2021/01/24 02:00:06;;;;;;;9.27;6.30;;;;;;;;;;5091152;28;20585;-50
2021/01/24 02:02:40;;;;;;;7.85;6.43;;;;;;;;;;5091451;28;20166;-49
2021/01/24 02:05:06;;;;;;;8.25;6.25;;;;;;;;;;5091591;28;20172;-53
2021/01/24 02:07:42;;;;;;;8.43;6.45;;;;;;;;;;5091049;28;20173;-49
2021/01/24 02:10:10;;;;;;;7.93;5.35;;;;;;;;;;5092034;28;20251;-50
2021/01/24 02:12:47;;;;;;;6.88;6.25;;;;;;;;;;5091837;28;20190;-49
2021/01/24 02:15:17;;;;;;;8.27;5.65;;;;;;;;;;5091165;28;20219;-50
2021/01/24 02:17:49;;;;;;;7.20;6.40;;;;;;;;;;5092045;28;20199;-50
2021/01/24 02:20:21;;;;;;;8.65;6.38;;;;;;;;;;5091916;28;20726;-49
2021/01/24 02:22:49;;;;;;;6.80;6.20;;;;;;;;;;5091761;28;20165;-51
2021/01/24 02:25:24;;;;;;;6.28;5.43;;;;;;;;;;5091611;28;20173;-52
2021/01/24 02:28:12;;;;;;;5.95;5.28;;;;;;;;;;5091506;28;20169;-49
2021/01/24 02:30:39;;;;;;;6.55;5.80;;;;;;;;;;5091785;28;20171;-49
2021/01/24 02:33:09;;;;;;;6.07;5.47;;;;;;;;;;5091550;28;20170;-50
2021/01/24 02:35:38;;;;;;;5.82;4.43;;;;;;;;;;5090190;28;20620;-50
2021/01/24 02:38:05;;;;;;;6.00;5.10;;;;;;;;;;5091398;28;20234;-50
2021/01/24 02:40:35;;;;;;;5.47;4.35;;;;;;;;;;5091360;28;20198;-50
2021/01/24 02:43:02;;;;;;;4.93;4.43;;;;;;;;;;5091522;28;20166;-50
2021/01/24 02:45:29;;;;;;;6.38;4.43;;;;;;;;;;5089942;28;20183;-51
2021/01/24 02:47:56;;;;;;;5.35;4.85;;;;;;;;;;5091270;28;20260;-50
2021/01/24 02:50:22;;;;;;;4.05;3.70;;;;;;;;;;5090483;28;20169;-49
2021/01/24 02:52:48;;;;;;;4.40;4.00;;;;;;;;;;5091376;28;20171;-50
2021/01/24 02:55:19;;;;;;;3.20;2.90;;;;;;;;;;5090967;28;20401;-55
2021/01/24 02:57:46;;;;;;;4.03;3.10;;;;;;;;;;5091322;28;20165;-52
2021/01/24 03:00:12;;;;;;;2.90;2.70;;;;;;;;;;5091004;28;20198;-49
2021/01/24 03:02:38;;;;;;;3.00;2.80;;;;;;;;;;5091531;28;20162;-50
2021/01/24 03:05:08;;;;;;;3.03;2.83;;;;;;;;;;5091276;28;20163;-49
2021/01/24 03:07:34;;;;;;;6.55;3.03;;;;;;;;;;5090882;28;20957;-49
2021/01/24 03:10:01;;;;;;;2.83;2.63;;;;;;;;;;5091012;28;20185;-50
2021/01/24 03:12:36;;;;;;;3.88;2.50;;;;;;;;;;5089108;28;20438;-52
2021/01/24 03:15:06;;;;;;;3.10;2.90;;;;;;;;;;5091118;28;20535;-49
2021/01/24 03:17:36;;;;;;;4.80;2.67;;;;;;;;;;5090627;28;20516;-49
2021/01/24 03:20:04;;;;;;;3.10;2.85;;;;;;;;;;5091022;28;20265;-50
2021/01/24 03:22:31;;;;;;;3.53;3.28;;;;;;;;;;5090694;28;20648;-50
2021/01/24 03:24:57;;;;;;;3.22;3.03;;;;;;;;;;5090863;28;20166;-50
2021/01/24 03:27:23;;;;;;;3.22;2.88;;;;;;;;;;5089113;28;20174;-50
2021/01/24 03:29:50;;;;;;;3.35;3.05;;;;;;;;;;5090779;28;20189;-51
2021/01/24 03:32:16;;;;;;;3.35;2.80;;;;;;;;;;5090874;28;20188;-50
2021/01/24 03:34:43;;;;;;;9.85;3.15;;;;;;;;;;5090636;28;20656;-49
2021/01/24 03:37:08;;;;;;;4.00;3.60;;;;;;;;;;5090539;28;20169;-50
2021/01/24 03:39:36;;;;;;;19.27;4.23;;;;;;;;;;5090637;28;20194;-50
2021/01/24 03:42:02;;;;;;;4.15;3.08;;;;;;;;;;5090630;28;20448;-51
2021/01/24 03:44:28;;;;;;;22.10;3.70;;;;;;;;;;5090645;28;20709;-51
2021/01/24 03:46:54;;;;;;;2.73;2.50;;;;;;;;;;5090370;28;20173;-51
2021/01/24 03:49:21;;;;;;;3.50;3.20;;;;;;;;;;5088486;28;20457;-52
2021/01/24 03:51:47;;;;;;;3.42;3.13;;;;;;;;;;5090690;28;20162;-51
2021/01/24 03:54:13;;;;;;;14.95;4.20;;;;;;;;;;5090609;28;20665;-52
2021/01/24 03:56:39;;;;;;;7.70;4.47;;;;;;;;;;5090231;28;20219;-50
2021/01/24 03:59:06;;;;;;;4.43;4.03;;;;;;;;;;5090472;28;20270;-50
2021/01/24 04:01:33;;;;;;;5.53;4.57;;;;;;;;;;5090355;28;20197;-50
2021/01/24 04:03:59;;;;;;;6.53;5.57;;;;;;;;;;5072364;28;20670;-50
2021/01/24 04:06:26;;;;;;;8.80;6.73;;;;;;;;;;5090097;28;20169;-50
2021/01/24 04:09:14;;;;;;;10.00;6.13;;;;;;;;;;5072066;28;21004;-50
2021/01/24 04:11:40;;;;;;;18.73;8.00;;;;;;;;;;5089647;28;20227;-50
2021/01/24 04:14:06;;;;;;;8.80;6.30;;;;;;;;;;5089177;28;20173;-51
2021/01/24 04:16:32;;;;;;;9.45;7.35;;;;;;;;;;5091004;28;20407;-51
2021/01/24 04:18:58;;;;;;;12.40;7.93;;;;;;;;;;5094153;28;20190;-49
2021/01/24 04:21:24;;;;;;;12.53;7.70;;;;;;;;;;5094175;28;20491;-49
2021/01/24 04:23:50;;;;;;;11.80;9.07;;;;;;;;;;5093337;28;20480;-50
2021/01/24 04:26:16;;;;;;;15.57;9.03;;;;;;;;;;5094060;28;20404;-50
2021/01/24 04:28:42;;;;;;;11.23;9.33;;;;;;;;;;5094176;28;20457;-50
2021/01/24 04:31:08;;;;;;;18.83;10.60;;;;;;;;;;5094235;28;20406;-49
2021/01/24 04:33:34;;;;;;;13.97;9.27;;;;;;;;;;5093904;28;20962;-49
2021/01/24 04:36:00;;;;;;;15.37;10.20;;;;;;;;;;5092488;28;20403;-50
2021/01/24 04:38:27;;;;;;;16.97;11.70;;;;;;;;;;5093822;28;20423;-50
2021/01/24 04:40:53;;;;;;;22.67;12.95;;;;;;;;;;5093641;28;20462;-51
2021/01/24 04:43:19;;;;;;;16.03;12.17;;;;;;;;;;5093859;28;20165;-50
2021/01/24 04:45:45;;;;;;;19.70;12.63;;;;;;;;;;5093488;28;20392;-49
2021/01/24 04:48:11;;;;;;;18.50;13.30;;;;;;;;;;5093576;28;20648;-51
2021/01/24 04:50:38;;;;;;;15.55;12.45;;;;;;;;;;5093457;28;20597;-50
2021/01/24 04:53:04;;;;;;;21.52;12.90;;;;;;;;;;5093619;28;20192;-51
2021/01/24 04:55:31;;;;;;;18.80;14.02;;;;;;;;;;5093247;28;20166;-50
2021/01/24 04:57:57;;;;;;;19.23;14.45;;;;;;;;;;5093456;28;20201;-50
2021/01/24 05:00:26;;;;;;;20.05;13.90;;;;;;;;;;5091986;28;20207;-50
2021/01/24 05:02:52;;;;;;;18.65;14.63;;;;;;;;;;5093392;28;20165;-50
2021/01/24 05:05:18;;;;;;;23.83;15.70;;;;;;;;;;5093158;28;20172;-51
2021/01/24 05:07:47;;;;;;;28.67;19.23;;;;;;;;;;5093153;28;20929;-50
2021/01/24 05:10:15;;;;;;;59.40;21.23;;;;;;;;;;5093244;28;20469;-49
2021/01/24 05:12:45;;;;;;;30.05;20.50;;;;;;;;;;5093181;28;20195;-50
2021/01/24 05:15:11;;;;;;;32.88;22.45;;;;;;;;;;5091643;28;20546;-49
2021/01/24 05:17:49;;;;;;;31.67;21.40;;;;;;;;;;5092074;28;20185;-49
2021/01/24 05:20:15;;;;;;;33.17;20.25;;;;;;;;;;5093030;28;20189;-51
2021/01/24 05:22:41;;;;;;;27.98;21.35;;;;;;;;;;5092865;28;20166;-52
2021/01/24 05:25:07;;;;;;;22.85;18.52;;;;;;;;;;5092964;28;20158;-51
2021/01/24 05:27:33;;;;;;;21.67;17.67;;;;;;;;;;5092212;28;20165;-49
2021/01/24 05:29:59;;;;;;;22.27;15.90;;;;;;;;;;5091983;28;20557;-50
2021/01/24 05:32:25;;;;;;;17.10;13.37;;;;;;;;;;5092789;28;20465;-51
2021/01/24 05:34:51;;;;;;;20.50;14.87;;;;;;;;;;5092661;28;20399;-49
2021/01/24 05:37:17;;;;;;;18.20;12.77;;;;;;;;;;5092651;28;20414;-49
2021/01/24 05:39:43;;;;;;;14.03;11.10;;;;;;;;;;5073217;28;20296;-49
2021/01/24 05:42:12;;;;;;;10.90;9.80;;;;;;;;;;5092644;28;20447;-52
2021/01/24 05:44:39;;;;;;;13.95;10.40;;;;;;;;;;5092464;28;20280;-53
2021/01/24 05:47:05;;;;;;;9.68;8.70;;;;;;;;;;5092279;28;20165;-52
2021/01/24 05:49:32;;;;;;;10.43;9.27;;;;;;;;;;5091982;28;20307;-50
2021/01/24 05:52:01;;;;;;;11.85;9.75;;;;;;;;;;5092847;28;20410;-52
2021/01/24 05:54:46;;;;;;;12.68;10.52;;;;;;;;;;5092423;28;20235;-50
2021/01/24 05:57:13;;;;;;;11.05;8.15;;;;;;;;;;5091912;28;20176;-50
2021/01/24 05:59:52;;;;;;;12.50;10.10;;;;;;;;;;5092550;28;20580;-51
2021/01/24 06:02:19;;;;;;;11.55;9.65;;;;;;;;;;5092312;28;20211;-49
2021/01/24 06:04:45;;;;;;;13.13;10.00;;;;;;;;;;5092253;28;20170;-49
2021/01/24 06:07:13;;;;;;;16.88;9.88;;;;;;;;;;5090736;28;20170;-49
2021/01/24 06:09:39;;;;;;;10.15;7.93;;;;;;;;;;5092080;28;20871;-50
2021/01/24 06:12:07;;;;;;;11.57;8.70;;;;;;;;;;5092163;28;20174;-51
2021/01/24 06:14:34;;;;;;;11.35;8.20;;;;;;;;;;5092058;28;20886;-52
2021/01/24 06:17:02;;;;;;;10.45;8.68;;;;;;;;;;5091643;28;20165;-49
2021/01/24 06:19:29;;;;;;;10.35;9.25;;;;;;;;;;5091822;28;20198;-50
2021/01/24 06:21:56;;;;;;;9.77;7.95;;;;;;;;;;5091789;28;20241;-49
2021/01/24 06:24:25;;;;;;;12.15;8.40;;;;;;;;;;5091743;28;20165;-49
2021/01/24 06:26:53;;;;;;;10.02;7.30;;;;;;;;;;5091666;28;20169;-50
2021/01/24 06:29:21;;;;;;;9.63;8.07;;;;;;;;;;5091608;28;20189;-52
2021/01/24 06:31:47;;;;;;;9.30;7.07;;;;;;;;;;5091900;28;20656;-49
2021/01/24 06:34:14;;;;;;;11.00;7.35;;;;;;;;;;5091587;28;20174;-49
2021/01/24 06:36:58;;;;;;;10.38;7.85;;;;;;;;;;5089753;28;20248;-52
2021/01/24 06:39:39;;;;;;;10.73;7.57;;;;;;;;;;5091248;28;20672;-51
2021/01/24 06:42:05;;;;;;;13.38;7.50;;;;;;;;;;5091804;28;20193;-50
2021/01/24 06:44:35;;;;;;;12.07;7.70;;;;;;;;;;5091681;28;20165;-50
2021/01/24 06:47:03;;;;;;;21.33;8.07;;;;;;;;;;5091565;28;20396;-49
2021/01/24 06:49:39;;;;;;;12.15;8.82;;;;;;;;;;5091367;28;20207;-50
2021/01/24 06:52:21;;;;;;;9.88;7.60;;;;;;;;;;5091462;28;20169;-50
2021/01/24 06:54:48;;;;;;;9.82;7.03;;;;;;;;;;5091410;28;20663;-50
2021/01/24 06:57:14;;;;;;;9.63;7.30;;;;;;;;;;5091023;28;20173;-50
2021/01/24 06:59:39;;;;;;;8.30;7.37;;;;;;;;;;5091148;28;20547;-50
2021/01/24 07:02:25;;;;;;;10.33;8.23;;;;;;;;;;5090725;28;20508;-52
2021/01/24 07:05:09;;;;;;;9.40;8.43;;;;;;;;;;5090505;28;20383;-50
2021/01/24 07:07:36;;;;;;;13.32;9.88;;;;;;;;;;5088290;28;20177;-51
2021/01/24 07:10:03;;;;;;;14.25;8.93;;;;;;;;;;5090556;28;20181;-50
2021/01/24 07:12:36;;;;;;;16.25;10.07;;;;;;;;;;5090279;28;20165;-51
2021/01/24 07:15:06;;;;;;;17.17;11.85;;;;;;;;;;5090704;28;20309;-50
2021/01/24 07:17:33;;;;;;;17.85;12.50;;;;;;;;;;5089982;28;20369;-51
2021/01/24 07:19:59;;;;;;;17.63;12.75;;;;;;;;;;5090804;28;20636;-52
2021/01/24 07:22:25;;;;;;;20.93;13.57;;;;;;;;;;5090527;28;20195;-49
2021/01/24 07:24:54;;;;;;;18.42;13.40;;;;;;;;;;5090169;28;20403;-50
2021/01/24 07:27:22;;;;;;;20.48;14.23;;;;;;;;;;5090079;28;20674;-50
2021/01/24 07:29:48;;;;;;;18.35;13.65;;;;;;;;;;5089940;28;20194;-51
2021/01/24 07:32:15;;;;;;;23.25;13.73;;;;;;;;;;5090331;28;20215;-52
2021/01/24 07:34:45;;;;;;;21.73;14.25;;;;;;;;;;5089872;28;20169;-51
2021/01/24 07:37:13;;;;;;;27.25;15.18;;;;;;;;;;5088112;28;20246;-49
2021/01/24 07:39:39;;;;;;;16.42;12.13;;;;;;;;;;5089978;28;20201;-50
2021/01/24 07:42:06;;;;;;;21.55;13.07;;;;;;;;;;5090145;28;20200;-52
2021/01/24 07:44:32;;;;;;;25.67;14.05;;;;;;;;;;5090320;28;20170;-50
2021/01/24 07:46:58;;;;;;;19.98;12.25;;;;;;;;;;5090318;28;20529;-50
2021/01/24 07:49:24;;;;;;;18.57;12.80;;;;;;;;;;5090442;28;20202;-50
2021/01/24 07:51:50;;;;;;;15.77;11.07;;;;;;;;;;5091606;28;20946;-49
2021/01/24 07:54:17;;;;;;;17.38;10.80;;;;;;;;;;5094816;28;20582;-50
2021/01/24 07:56:43;;;;;;;20.70;11.70;;;;;;;;;;5094321;28;20169;-49
2021/01/24 07:59:10;;;;;;;15.10;10.15;;;;;;;;;;5094907;28;20299;-51
2021/01/24 08:01:37;;;;;;;14.33;9.07;;;;;;;;;;5094382;28;20280;-50
2021/01/24 08:04:05;;;;;;;15.45;10.10;;;;;;;;;;5094552;28;20469;-50
2021/01/24 08:06:38;;;;;;;17.38;11.10;;;;;;;;;;5094175;28;20169;-50
2021/01/24 08:09:05;;;;;;;17.08;11.45;;;;;;;;;;5092380;28;20193;-52
2021/01/24 08:11:31;;;;;;;21.23;11.95;;;;;;;;;;5094379;28;20180;-49
2021/01/24 08:13:57;;;;;;;16.45;11.93;;;;;;;;;;5094254;28;20165;-50
2021/01/24 08:16:25;;;;;;;21.88;12.10;;;;;;;;;;5094106;28;20173;-49
2021/01/24 08:18:52;;;;;;;18.50;11.57;;;;;;;;;;5094076;28;20181;-50
2021/01/24 08:21:18;;;;;;;21.08;12.13;;;;;;;;;;5094432;28;20198;-51
2021/01/24 08:23:45;;;;;;;18.17;11.80;;;;;;;;;;5094036;28;20166;-50
2021/01/24 08:26:11;;;;;;;18.90;12.18;;;;;;;;;;5093958;28;20162;-49
2021/01/24 08:28:37;;;;;;;21.95;11.93;;;;;;;;;;5094060;28;20196;-50
2021/01/24 08:31:05;;;;;;;24.60;14.23;;;;;;;;;;5094048;28;20248;-49
2021/01/24 08:33:32;;;;;;;20.40;13.05;;;;;;;;;;5093835;28;20516;-50
2021/01/24 08:36:14;;;;;;;24.50;16.40;;;;;;;;;;5093762;28;20177;-49
2021/01/24 08:38:42;;;;;;;24.92;15.23;;;;;;;;;;5091974;28;20233;-52
2021/01/24 08:41:08;;;;;;;25.70;16.55;;;;;;;;;;5093788;28;20197;-49
2021/01/24 08:43:34;;;;;;;31.58;16.75;;;;;;;;;;5093974;28;20952;-49
2021/01/24 08:46:19;;;;;;;29.80;16.50;;;;;;;;;;5093377;28;20647;-49
2021/01/24 08:48:45;;;;;;;29.20;18.17;;;;;;;;;;5093626;28;20201;-52
2021/01/24 08:51:11;;;;;;;34.47;19.27;;;;;;;;;;5093739;28;20169;-54
2021/01/24 08:53:37;;;;;;;32.03;19.50;;;;;;;;;;5094039;28;20486;-54
2021/01/24 08:56:03;;;;;;;33.43;19.80;;;;;;;;;;5093366;28;21126;-50
2021/01/24 08:58:29;;;;;;;39.15;18.98;;;;;;;;;;5073046;28;20817;-49
2021/01/24 09:01:13;;;;;;;40.42;22.42;;;;;;;;;;5073218;28;20205;-52
2021/01/24 09:03:39;;;;;;;31.52;18.17;;;;;;;;;;5072728;28;20165;-54
2021/01/24 09:06:18;;;;;;;35.72;21.42;;;;;;;;;;5074711;28;20652;-53
2021/01/24 09:08:45;;;;;;;37.08;19.85;;;;;;;;;;5079314;28;20193;-50
2021/01/24 09:11:11;;;;;;;34.60;19.52;;;;;;;;;;5093285;28;20260;-49
2021/01/24 09:13:41;;;;;;;39.50;18.35;;;;;;;;;;5096975;28;20181;-51
2021/01/24 09:16:07;;;;;;;35.60;19.15;;;;;;;;;;5062873;28;20182;-52
2021/01/24 09:18:33;;;;;;;39.40;20.97;;;;;;;;;;5093006;28;20200;-52
2021/01/24 09:21:00;;;;;;;40.63;20.05;;;;;;;;;;5093028;28;20541;-52
2021/01/24 09:23:26;;;;;;;43.53;20.30;;;;;;;;;;5093735;28;20643;-50
2021/01/24 09:25:52;;;;;;;41.07;20.13;;;;;;;;;;5097639;28;20193;-51
2021/01/24 09:28:18;;;;;;;35.47;19.63;;;;;;;;;;5097261;28;21069;-52
2021/01/24 09:30:44;;;;;;;49.83;21.27;;;;;;;;;;5097336;28;20427;-51
2021/01/24 09:33:10;;;;;;;38.27;19.73;;;;;;;;;;5098603;28;20668;-52
2021/01/24 09:35:36;;;;;;;39.58;20.52;;;;;;;;;;5096350;28;20510;-50
2021/01/24 09:38:02;;;;;;;42.67;21.27;;;;;;;;;;5095775;28;20306;-52
2021/01/24 09:40:28;;;;;;;45.17;22.30;;;;;;;;;;5092731;28;20459;-52
2021/01/24 09:42:54;;;;;;;39.37;20.93;;;;;;;;;;5092480;28;20174;-49
2021/01/24 09:45:20;;;;;;;45.57;22.93;;;;;;;;;;5092246;28;20401;-49
2021/01/24 09:47:46;;;;;;;36.97;19.98;;;;;;;;;;5092225;28;20396;-49
2021/01/24 09:50:12;;;;;;;36.47;21.23;;;;;;;;;;5092519;28;20192;-49
2021/01/24 09:52:38;;;;;;;39.40;21.00;;;;;;;;;;5092117;28;20387;-50
2021/01/24 09:55:04;;;;;;;39.07;23.03;;;;;;;;;;5092891;28;20222;-49
2021/01/24 09:57:30;;;;;;;39.22;21.15;;;;;;;;;;5092172;28;20488;-50
2021/01/24 09:59:56;;;;;;;40.20;21.07;;;;;;;;;;5092041;28;20265;-50
2021/01/24 10:02:22;;;;;;;39.30;19.77;;;;;;;;;;5092163;28;20450;-50
2021/01/24 10:04:48;;;;;;;36.13;20.43;;;;;;;;;;5092094;28;20406;-50
2021/01/24 10:07:14;;;;;;;34.93;21.57;;;;;;;;;;5090785;28;20791;-50
2021/01/24 10:09:40;;;;;;;45.17;21.00;;;;;;;;;;5091805;28;20473;-51
2021/01/24 10:12:06;;;;;;;31.57;19.57;;;;;;;;;;5092094;28;20431;-49
2021/01/24 10:14:32;;;;;;;36.97;19.80;;;;;;;;;;5091192;28;20411;-50
2021/01/24 10:16:58;;;;;;;29.93;16.90;;;;;;;;;;5092090;28;20222;-52
2021/01/24 10:19:24;;;;;;;31.67;19.13;;;;;;;;;;5092021;28;20447;-49
2021/01/24 10:21:50;;;;;;;38.77;18.63;;;;;;;;;;5091203;28;20450;-49
2021/01/24 10:24:16;;;;;;;31.05;18.42;;;;;;;;;;5091846;28;20859;-49
2021/01/24 10:26:42;;;;;;;32.63;17.07;;;;;;;;;;5091346;28;20219;-49
2021/01/24 10:29:08;;;;;;;28.60;17.17;;;;;;;;;;5091614;28;20466;-50
2021/01/24 10:31:34;;;;;;;31.60;18.60;;;;;;;;;;5091532;28;20621;-49
2021/01/24 10:34:00;;;;;;;35.97;17.50;;;;;;;;;;5091771;28;20399;-49
2021/01/24 10:36:26;;;;;;;28.37;17.63;;;;;;;;;;5090445;28;20586;-50
2021/01/24 10:38:52;;;;;;;36.60;17.20;;;;;;;;;;5091623;28;20465;-50
2021/01/24 10:41:18;;;;;;;28.23;17.23;;;;;;;;;;5091546;28;20189;-50
2021/01/24 10:43:44;;;;;;;23.73;14.97;;;;;;;;;;5091339;28;20414;-52
2021/01/24 10:46:10;;;;;;;29.77;15.40;;;;;;;;;;5091346;28;20405;-52
2021/01/24 10:48:36;;;;;;;23.97;14.93;;;;;;;;;;5091402;28;20439;-53
2021/01/24 10:51:02;;;;;;;23.25;15.25;;;;;;;;;;5091433;28;20905;-52
2021/01/24 10:53:28;;;;;;;27.70;16.08;;;;;;;;;;5091511;28;20178;-52
2021/01/24 10:55:54;;;;;;;24.97;14.30;;;;;;;;;;5091175;28;20200;-52
2021/01/24 10:58:20;;;;;;;24.53;14.43;;;;;;;;;;5091315;28;20416;-53
2021/01/24 11:00:46;;;;;;;26.27;14.10;;;;;;;;;;5091281;28;21031;-48
2021/01/24 11:03:11;;;;;;;22.37;14.03;;;;;;;;;;5091361;28;20404;-49
2021/01/24 11:05:37;;;;;;;24.90;15.53;;;;;;;;;;5090880;28;20396;-49
2021/01/24 11:08:04;;;;;;;26.60;16.20;;;;;;;;;;5089372;28;20431;-49
2021/01/24 11:10:30;;;;;;;29.30;16.30;;;;;;;;;;5091287;28;20174;-49
2021/01/24 11:12:55;;;;;;;27.87;14.37;;;;;;;;;;5091407;28;20176;-49
2021/01/24 11:15:22;;;;;;;31.93;17.70;;;;;;;;;;5090838;28;20400;-49
2021/01/24 11:17:47;;;;;;;37.80;16.90;;;;;;;;;;5091161;28;20445;-49
2021/01/24 11:20:14;;;;;;;26.33;15.03;;;;;;;;;;5089463;28;20198;-53
2021/01/24 11:22:40;;;;;;;29.27;16.10;;;;;;;;;;5072536;28;20392;-49
2021/01/24 11:25:06;;;;;;;27.10;14.38;;;;;;;;;;5090945;28;20184;-49
2021/01/24 11:27:33;;;;;;;31.33;14.98;;;;;;;;;;5090496;28;20170;-49
2021/01/24 11:29:59;;;;;;;31.80;16.65;;;;;;;;;;5090763;28;20193;-52
2021/01/24 11:32:25;;;;;;;33.30;13.82;;;;;;;;;;5090676;28;20174;-52
2021/01/24 11:34:51;;;;;;;24.20;13.17;;;;;;;;;;5090723;28;20170;-49
2021/01/24 11:37:17;;;;;;;26.00;13.55;;;;;;;;;;5088508;28;20429;-49
2021/01/24 11:39:43;;;;;;;31.10;16.30;;;;;;;;;;5089978;28;20338;-49
2021/01/24 11:42:09;;;;;;;32.75;15.48;;;;;;;;;;5090666;28;20512;-52
2021/01/24 11:44:35;;;;;;;31.02;16.92;;;;;;;;;;5090471;28;20171;-52
2021/01/24 11:47:01;;;;;;;33.47;17.97;;;;;;;;;;5090388;28;20248;-49
2021/01/24 11:49:27;;;;;;;35.05;17.80;;;;;;;;;;5088391;28;20458;-49
2021/01/24 11:51:53;;;;;;;37.83;19.30;;;;;;;;;;5090630;28;20173;-50
2021/01/24 11:54:19;;;;;;;37.93;19.67;;;;;;;;;;5090443;28;20408;-49
2021/01/24 11:56:45;;;;;;;41.38;21.67;;;;;;;;;;5090228;28;20872;-49
2021/01/24 11:59:11;;;;;;;47.87;22.13;;;;;;;;;;5090482;28;20235;-49
2021/01/24 12:01:37;;;;;;;40.03;20.48;;;;;;;;;;5090380;28;20520;-49
2021/01/24 12:04:03;;;;;;;40.67;21.20;;;;;;;;;;5090307;28;20167;-49
2021/01/24 12:06:29;;;;;;;42.58;21.48;;;;;;;;;;5071802;28;20645;-52
2021/01/24 12:08:55;;;;;;;38.85;21.50;;;;;;;;;;5087833;28;20205;-53
2021/01/24 12:11:21;;;;;;;37.60;21.47;;;;;;;;;;5089095;28;20182;-49
2021/01/24 12:13:47;;;;;;;42.60;22.53;;;;;;;;;;5089683;28;20754;-49
2021/01/24 12:16:13;;;;;;;44.80;21.30;;;;;;;;;;5090110;28;20400;-49
2021/01/24 12:18:39;;;;;;;36.60;20.67;;;;;;;;;;5089995;28;20428;-51
2021/01/24 12:21:05;;;;;;;37.90;20.20;;;;;;;;;;5090070;28;20478;-52
2021/01/24 12:23:31;;;;;;;38.93;21.03;;;;;;;;;;5090177;28;20469;-49
2021/01/24 12:25:57;;;;;;;40.43;20.67;;;;;;;;;;5089950;28;20439;-49
2021/01/24 12:28:23;;;;;;;38.53;18.45;;;;;;;;;;5088303;28;20425;-49
2021/01/24 12:30:49;;;;;;;33.97;17.83;;;;;;;;;;5089934;28;20571;-50
2021/01/24 12:33:15;;;;;;;32.70;18.60;;;;;;;;;;5089891;28;20409;-49
2021/01/24 12:35:41;;;;;;;36.77;19.57;;;;;;;;;;5089888;28;20404;-49
2021/01/24 12:38:07;;;;;;;29.13;16.80;;;;;;;;;;5090000;28;20472;-49
2021/01/24 12:40:33;;;;;;;36.75;18.15;;;;;;;;;;5093814;28;20199;-49
2021/01/24 12:43:00;;;;;;;32.63;16.17;;;;;;;;;;5093797;28;20169;-50
2021/01/24 12:45:26;;;;;;;35.60;18.13;;;;;;;;;;5093393;28;20166;-49
2021/01/24 12:47:52;;;;;;;40.70;17.60;;;;;;;;;;5093457;28;20555;-50
2021/01/24 12:50:18;;;;;;;33.80;18.43;;;;;;;;;;5093814;28;20402;-49
2021/01/24 12:52:45;;;;;;;34.20;15.77;;;;;;;;;;5093665;28;20496;-49
2021/01/24 12:55:11;;;;;;;28.48;15.77;;;;;;;;;;5093352;28;20219;-52
2021/01/24 12:57:37;;;;;;;27.05;16.10;;;;;;;;;;5093362;28;20174;-53
2021/01/24 13:00:04;;;;;;;32.43;16.57;;;;;;;;;;5093212;28;20185;-52
2021/01/24 13:02:30;;;;;;;26.13;15.40;;;;;;;;;;5093571;28;20587;-49
2021/01/24 13:04:56;;;;;;;24.80;15.30;;;;;;;;;;5093836;28;20221;-49
2021/01/24 13:07:22;;;;;;;24.80;16.40;;;;;;;;;;5093204;28;20402;-49
2021/01/24 13:09:48;;;;;;;20.07;12.30;;;;;;;;;;5091688;28;20438;-49
2021/01/24 13:12:14;;;;;;;19.60;13.50;;;;;;;;;;5093113;28;20941;-49
2021/01/24 13:14:40;;;;;;;18.93;12.43;;;;;;;;;;5093616;28;20886;-50
2021/01/24 13:17:06;;;;;;;20.73;13.17;;;;;;;;;;5092815;28;20406;-50
2021/01/24 13:19:32;;;;;;;16.88;11.70;;;;;;;;;;5093713;28;20426;-51
2021/01/24 13:21:58;;;;;;;18.83;11.10;;;;;;;;;;5092784;28;20206;-51
2021/01/24 13:24:25;;;;;;;17.77;12.03;;;;;;;;;;5092954;28;20480;-52
2021/01/24 13:26:51;;;;;;;21.95;12.25;;;;;;;;;;5092746;28;20420;-51
2021/01/24 13:29:17;;;;;;;22.33;12.50;;;;;;;;;;5092121;28;20239;-51
2021/01/24 13:31:43;;;;;;;19.80;12.77;;;;;;;;;;5092884;28;20459;-51
2021/01/24 13:34:09;;;;;;;21.90;13.60;;;;;;;;;;5092719;28;20398;-50
2021/01/24 13:36:35;;;;;;;22.70;12.27;;;;;;;;;;5092684;28;20405;-51
2021/01/24 13:39:01;;;;;;;23.45;14.07;;;;;;;;;;5092595;28;20209;-51
2021/01/24 13:41:27;;;;;;;22.67;13.77;;;;;;;;;;5092557;28;20531;-52
2021/01/24 13:43:53;;;;;;;31.47;15.10;;;;;;;;;;5092406;28;20463;-52
2021/01/24 13:46:19;;;;;;;20.70;15.07;;;;;;;;;;5092347;28;20489;-51
2021/01/24 13:48:45;;;;;;;23.92;15.65;;;;;;;;;;5091621;28;20454;-51
2021/01/24 13:51:11;;;;;;;29.50;15.82;;;;;;;;;;5091973;28;20173;-52
2021/01/24 13:53:37;;;;;;;27.97;16.03;;;;;;;;;;5092367;28;20168;-51
2021/01/24 13:56:03;;;;;;;24.33;15.73;;;;;;;;;;5091881;28;20476;-51
2021/01/24 13:58:29;;;;;;;34.53;18.65;;;;;;;;;;5090240;28;20849;-52
2021/01/24 14:00:55;;;;;;;30.37;18.43;;;;;;;;;;5092327;28;20196;-51
2021/01/24 14:03:21;;;;;;;31.00;17.43;;;;;;;;;;5092305;28;20389;-52
2021/01/24 14:05:47;;;;;;;34.33;17.90;;;;;;;;;;5091925;28;20388;-52
2021/01/24 14:08:13;;;;;;;30.65;18.33;;;;;;;;;;5092095;28;20179;-51
2021/01/24 14:10:39;;;;;;;29.80;16.63;;;;;;;;;;5092016;28;20232;-52
2021/01/24 14:13:06;;;;;;;29.17;16.75;;;;;;;;;;5092070;28;20400;-52
2021/01/24 14:15:32;;;;;;;30.40;16.20;;;;;;;;;;5091650;28;20261;-52
2021/01/24 14:17:59;;;;;;;30.08;17.25;;;;;;;;;;5092036;28;20182;-51
2021/01/24 14:20:25;;;;;;;26.17;15.75;;;;;;;;;;5091926;28;20184;-50
2021/01/24 14:22:51;;;;;;;25.55;15.38;;;;;;;;;;5091919;28;20151;-52
2021/01/24 14:25:18;;;;;;;25.65;14.73;;;;;;;;;;5091571;28;20175;-50